Time;durP1;ratioP1;P1;durP2;ratioP2;P2;SDS_P1;SDS_P2;PMS_P1;PMS_P2;Temp;Humidity;BMP_temperature;BMP_pressure;BME280_temperature;BME280_humidity;BME280_pressure;Samples;Min_cycle;Max_cycle;Signal;HPM_P1;HPM_P2
2024/01/30 00:02:43;;;;;;;;;;;;;;;2.13;69.16;102847.22;5368979;32;35344;-68
2024/01/30 00:05:45;;;;;;;;;;;;;;;2.20;68.37;102837.94;5370774;32;34510;-66
2024/01/30 00:08:48;;;;;;;;;;;;;;;2.26;68.17;102834.66;5372067;32;34891;-70
2024/01/30 00:11:51;;;;;;;;;;;;;;;2.45;68.35;102844.84;5370180;32;34458;-71
2024/01/30 00:14:53;;;;;;;;;;;;;;;2.69;66.89;102849.94;5374130;32;34722;-66
2024/01/30 00:17:56;;;;;;;;;;;;;;;2.39;67.53;102842.03;5370597;32;35281;-70
2024/01/30 00:20:59;;;;;;;;;;;;;;;2.47;66.53;102837.97;5372942;32;35030;-70
2024/01/30 00:24:01;;;;;;;;;;;;;;;2.64;66.68;102839.41;5371029;32;34838;-69
2024/01/30 00:27:03;;;;;;;;;;;;;;;2.06;68.90;102842.66;5353964;32;34918;-69
2024/01/30 00:30:06;;;;;;;;;;;;;;;2.28;67.40;102844.25;5369184;32;35412;-69
2024/01/30 00:33:09;;;;;;;;;;;;;;;2.34;67.87;102841.88;5369376;32;35361;-65
2024/01/30 00:36:11;;;;;;;;;;;;;;;2.66;66.99;102850.72;5374034;32;35069;-67
2024/01/30 00:39:15;;;;;;;;;;;;;;;2.40;67.52;102856.78;5344074;32;34549;-71
2024/01/30 00:42:17;;;;;;;;;;;;;;;2.51;67.27;102855.38;5374323;32;35079;-70
2024/01/30 00:45:20;;;;;;;;;;;;;;;2.92;65.74;102855.88;5370081;32;35437;-65
2024/01/30 00:48:22;;;;;;;;;;;;;;;2.44;66.91;102851.72;5357952;32;35382;-70
2024/01/30 00:51:24;;;;;;;;;;;;;;;2.18;68.30;102855.12;5373914;32;35109;-65
2024/01/30 00:54:26;;;;;;;;;;;;;;;2.16;68.24;102849.91;5369143;32;34948;-65
2024/01/30 00:57:29;;;;;;;;;;;;;;;2.27;68.74;102854.59;5358499;32;35720;-65
2024/01/30 01:00:31;;;;;;;;;;;;;;;2.21;67.35;102851.78;5356268;32;35021;-65
2024/01/30 01:03:34;;;;;;;;;;;;;;;1.91;69.00;102844.69;5357307;32;35560;-70
2024/01/30 01:06:36;;;;;;;;;;;;;;;2.35;67.91;102841.03;5372249;32;34636;-71
2024/01/30 01:09:39;;;;;;;;;;;;;;;2.55;66.71;102844.28;5356150;32;35076;-70
2024/01/30 01:12:41;;;;;;;;;;;;;;;2.37;67.29;102838.47;5373798;32;34898;-65
2024/01/30 01:15:43;;;;;;;;;;;;;;;1.92;69.07;102836.06;5369795;32;35153;-70
2024/01/30 01:18:45;;;;;;;;;;;;;;;1.91;68.55;102842.09;5374220;32;34530;-70
2024/01/30 01:21:48;;;;;;;;;;;;;;;1.97;68.50;102839.72;5369393;32;34806;-72
2024/01/30 01:24:50;;;;;;;;;;;;;;;2.27;68.53;102844.22;5354592;32;34819;-66
2024/01/30 01:27:52;;;;;;;;;;;;;;;2.79;65.82;102831.22;5353928;32;34871;-70
2024/01/30 01:30:58;;;;;;;;;;;;;;;2.31;67.31;102833.09;5355877;32;35002;-68
2024/01/30 01:34:01;;;;;;;;;;;;;;;2.28;66.78;102833.00;5372756;32;36132;-68
2024/01/30 01:37:03;;;;;;;;;;;;;;;2.27;66.65;102833.84;5357099;32;34628;-66
2024/01/30 01:40:06;;;;;;;;;;;;;;;1.98;68.05;102828.50;5373788;32;35091;-64
2024/01/30 01:43:08;;;;;;;;;;;;;;;2.26;67.15;102824.28;5352652;32;34957;-65
2024/01/30 01:46:10;;;;;;;;;;;;;;;1.62;69.27;102826.37;5372351;32;34533;-69
2024/01/30 01:49:13;;;;;;;;;;;;;;;1.66;70.11;102826.47;5358043;32;35560;-66
2024/01/30 01:52:15;;;;;;;;;;;;;;;1.64;69.46;102829.03;5358003;32;35493;-70
2024/01/30 01:55:21;;;;;;;;;;;;;;;1.65;68.60;102833.37;5359940;32;34308;-67
2024/01/30 01:58:24;;;;;;;;;;;;;;;1.30;70.50;102829.50;5354990;32;34628;-68
2024/01/30 02:01:27;;;;;;;;;;;;;;;2.52;67.07;102830.34;5372950;32;35294;-69
2024/01/30 02:04:29;;;;;;;;;;;;;;;2.45;66.21;102829.25;5367279;32;34677;-65
2024/01/30 02:07:31;;;;;;;;;;;;;;;1.80;67.89;102823.56;5367902;32;34863;-68
2024/01/30 02:10:35;;;;;;;;;;;;;;;2.25;67.41;102825.97;5345072;32;34645;-66
2024/01/30 02:14:06;;;;;;;;;;;;;;;1.18;70.12;102827.31;5343209;32;35787;-69
2024/01/30 02:17:53;;;;;;;;;;;;;;;2.31;67.98;102820.97;5346523;32;34806;-70
2024/01/30 02:21:15;;;;;;;;;;;;;;;1.63;68.82;102816.87;5324854;32;35340;-66
2024/01/30 02:24:17;;;;;;;;;;;;;;;2.02;68.83;102824.31;5346661;32;34545;-66
2024/01/30 02:27:20;;;;;;;;;;;;;;;1.75;68.69;102825.12;5347821;32;34223;-71
2024/01/30 02:30:22;;;;;;;;;;;;;;;1.70;68.49;102815.41;5345983;32;34278;-65
2024/01/30 02:33:24;;;;;;;;;;;;;;;1.70;69.04;102816.28;5350526;32;35082;-71
2024/01/30 02:36:26;;;;;;;;;;;;;;;1.53;70.35;102818.25;5350647;32;34953;-65
2024/01/30 02:39:28;;;;;;;;;;;;;;;0.91;72.30;102828.84;5345722;32;35190;-71
2024/01/30 02:42:30;;;;;;;;;;;;;;;1.67;69.96;102817.88;5350361;32;34996;-69
2024/01/30 02:45:32;;;;;;;;;;;;;;;1.09;71.68;102829.53;5347105;32;34171;-64
2024/01/30 02:48:35;;;;;;;;;;;;;;;1.55;69.64;102823.50;5350341;32;34168;-67
2024/01/30 02:51:37;;;;;;;;;;;;;;;0.79;72.30;102830.13;5336247;32;34546;-70
2024/01/30 02:54:39;;;;;;;;;;;;;;;1.05;72.11;102825.94;5334503;32;35274;-70
2024/01/30 02:57:46;;;;;;;;;;;;;;;1.63;69.59;102822.94;5337704;32;34750;-67
2024/01/30 03:01:10;;;;;;;;;;;;;;;1.16;70.69;102818.59;5338124;32;35378;-69
2024/01/30 03:04:42;;;;;;;;;;;;;;;1.49;70.15;102821.56;5356409;32;35159;-66
2024/01/30 03:08:04;;;;;;;;;;;;;;;1.40;69.62;102818.62;5369440;32;35972;-66
2024/01/30 03:11:06;;;;;;;;;;;;;;;1.30;71.57;102813.94;5356079;32;34059;-65
2024/01/30 03:14:10;;;;;;;;;;;;;;;1.65;69.66;102820.41;5360778;32;35261;-69
2024/01/30 03:17:13;;;;;;;;;;;;;;;1.45;70.15;102822.28;5367876;32;36776;-65
2024/01/30 03:20:15;;;;;;;;;;;;;;;1.38;69.55;102822.87;5371961;32;35034;-64
2024/01/30 03:23:17;;;;;;;;;;;;;;;1.16;70.68;102822.87;5354745;32;34323;-70
2024/01/30 03:26:19;;;;;;;;;;;;;;;1.38;70.74;102820.28;5359194;32;34739;-70
2024/01/30 03:29:21;;;;;;;;;;;;;;;1.19;70.50;102823.88;5355305;32;35434;-70
2024/01/30 03:32:24;;;;;;;;;;;;;;;2.05;68.48;102830.47;5357033;32;34758;-70
2024/01/30 03:35:26;;;;;;;;;;;;;;;2.45;66.44;102821.47;5374046;32;34418;-69
2024/01/30 03:38:28;;;;;;;;;;;;;;;2.80;64.90;102816.53;5356670;32;34465;-66
2024/01/30 03:41:32;;;;;;;;;;;;;;;2.78;65.09;102823.41;5360594;32;35445;-64
2024/01/30 03:44:35;;;;;;;;;;;;;;;1.74;67.92;102812.06;5356504;32;34645;-70
2024/01/30 03:47:37;;;;;;;;;;;;;;;1.67;69.86;102807.50;5374961;32;34802;-70
2024/01/30 03:50:40;;;;;;;;;;;;;;;1.49;71.11;102807.72;5370419;32;35000;-70
2024/01/30 03:53:42;;;;;;;;;;;;;;;1.59;70.82;102805.50;5369933;32;34865;-65
2024/01/30 03:56:44;;;;;;;;;;;;;;;1.20;72.09;102807.53;5359899;32;34646;-66
2024/01/30 03:59:46;;;;;;;;;;;;;;;1.28;72.26;102807.81;5370482;32;34231;-69
2024/01/30 04:02:50;;;;;;;;;;;;;;;1.46;70.85;102803.31;5358866;32;35210;-66
2024/01/30 04:05:53;;;;;;;;;;;;;;;1.33;70.34;102806.28;5373521;32;35001;-66
2024/01/30 04:08:55;;;;;;;;;;;;;;;1.22;71.12;102805.84;5368654;32;34760;-68
2024/01/30 04:11:57;;;;;;;;;;;;;;;0.97;72.60;102809.25;5373607;32;35609;-65
2024/01/30 04:15:00;;;;;;;;;;;;;;;1.34;71.43;102795.06;5356015;32;35138;-65
2024/01/30 04:18:05;;;;;;;;;;;;;;;0.97;72.35;102800.59;5359181;32;34697;-70
2024/01/30 04:21:08;;;;;;;;;;;;;;;1.05;72.60;102794.00;5356890;32;34549;-66
2024/01/30 04:24:10;;;;;;;;;;;;;;;1.43;71.11;102790.25;5368813;32;34396;-70
2024/01/30 04:27:12;;;;;;;;;;;;;;;1.21;71.93;102793.72;5367413;32;34704;-71
2024/01/30 04:30:14;;;;;;;;;;;;;;;1.17;71.03;102793.59;5372351;32;34322;-65
2024/01/30 04:33:18;;;;;;;;;;;;;;;1.03;72.40;102800.81;5355457;32;34850;-71
2024/01/30 04:36:20;;;;;;;;;;;;;;;1.13;72.16;102799.47;5366696;32;35663;-65
2024/01/30 04:39:22;;;;;;;;;;;;;;;1.13;71.93;102795.16;5373892;32;35394;-70
2024/01/30 04:42:24;;;;;;;;;;;;;;;1.33;70.83;102790.72;5370049;32;34987;-64
2024/01/30 04:45:26;;;;;;;;;;;;;;;1.47;70.69;102796.41;5372271;32;35765;-70
2024/01/30 04:48:38;;;;;;;;;;;;;;;1.34;69.96;102798.53;5369709;32;35474;-70
2024/01/30 04:51:51;;;;;;;;;;;;;;;1.16;70.68;102807.34;5357466;32;34342;-65
2024/01/30 04:55:21;;;;;;;;;;;;;;;1.54;69.93;102806.16;5374078;32;36450;-69
2024/01/30 04:58:33;;;;;;;;;;;;;;;1.83;68.90;102797.72;5346441;32;33431;-67
2024/01/30 05:01:55;;;;;;;;;;;;;;;1.19;71.32;102807.47;5356815;32;35352;-70
2024/01/30 05:05:14;;;;;;;;;;;;;;;1.65;70.53;102814.34;5356185;32;35518;-66
2024/01/30 05:08:36;;;;;;;;;;;;;;;1.32;70.30;102810.56;5358243;32;36269;-66
2024/01/30 05:12:00;;;;;;;;;;;;;;;1.70;69.88;102818.88;5356092;32;33739;-66
2024/01/30 05:15:19;;;;;;;;;;;;;;;1.28;70.05;102823.34;5369238;32;33825;-69
2024/01/30 05:18:32;;;;;;;;;;;;;;;1.74;68.02;102817.25;5342700;32;35681;-67
2024/01/30 05:21:43;;;;;;;;;;;;;;;2.11;66.79;102817.72;5357319;32;35582;-65
2024/01/30 05:24:53;;;;;;;;;;;;;;;1.56;68.63;102827.88;5342618;32;34391;-65
2024/01/30 05:28:24;;;;;;;;;;;;;;;1.65;68.23;102837.69;5356166;32;34298;-70
2024/01/30 05:31:56;;;;;;;;;;;;;;;1.52;69.07;102839.81;5359644;32;34884;-70
2024/01/30 05:35:28;;;;;;;;;;;;;;;1.23;68.98;102840.44;5366578;32;36862;-70
2024/01/30 05:38:49;;;;;;;;;;;;;;;1.70;67.80;102834.44;5359852;32;36648;-70
2024/01/30 05:42:00;;;;;;;;;;;;;;;2.55;64.92;102843.41;5354848;32;34583;-69
2024/01/30 05:45:25;;;;;;;;;;;;;;;2.62;64.07;102837.59;5345552;32;34676;-67
2024/01/30 05:49:03;;;;;;;;;;;;;;;1.54;66.60;102842.44;5369732;32;35635;-65
2024/01/30 05:52:20;;;;;;;;;;;;;;;1.50;68.31;102843.19;5366160;32;34032;-70
2024/01/30 05:55:37;;;;;;;;;;;;;;;1.68;67.79;102843.00;5356358;32;33726;-69
2024/01/30 05:58:50;;;;;;;;;;;;;;;1.84;67.65;102837.50;5346001;32;33810;-70
2024/01/30 06:02:00;;;;;;;;;;;;;;;1.61;68.03;102839.25;5352795;32;33379;-66
2024/01/30 06:05:02;;;;;;;;;;;;;;;1.83;67.27;102847.00;5371291;32;34821;-70
2024/01/30 06:08:04;;;;;;;;;;;;;;;1.74;67.32;102846.69;5369269;32;34420;-65
2024/01/30 06:11:09;;;;;;;;;;;;;;;1.74;67.49;102850.97;5369355;32;35496;-69
2024/01/30 06:14:11;;;;;;;;;;;;;;;1.18;69.42;102857.50;5369495;32;33748;-71
2024/01/30 06:17:13;;;;;;;;;;;;;;;0.99;70.46;102853.31;5370798;32;35145;-70
2024/01/30 06:20:16;;;;;;;;;;;;;;;1.51;68.44;102847.53;5372267;32;34214;-70
2024/01/30 06:23:17;;;;;;;;;;;;;;;1.84;67.46;102853.06;5365822;32;35253;-67
2024/01/30 06:26:20;;;;;;;;;;;;;;;1.41;69.54;102858.38;5356251;32;35203;-70
2024/01/30 06:29:22;;;;;;;;;;;;;;;1.23;70.17;102849.09;5350902;32;34879;-70
2024/01/30 06:32:24;;;;;;;;;;;;;;;1.16;70.45;102853.97;5355789;32;35253;-66
2024/01/30 06:35:28;;;;;;;;;;;;;;;1.34;69.51;102854.66;5351705;32;35359;-70
2024/01/30 06:38:30;;;;;;;;;;;;;;;1.01;71.29;102856.84;5366366;32;35021;-67
2024/01/30 06:41:32;;;;;;;;;;;;;;;1.89;67.24;102857.59;5353386;32;34994;-66
2024/01/30 06:44:34;;;;;;;;;;;;;;;1.32;68.86;102856.34;5351655;32;35008;-76
2024/01/30 06:47:36;;;;;;;;;;;;;;;1.92;66.61;102862.00;5353954;32;34508;-71
2024/01/30 06:50:38;;;;;;;;;;;;;;;2.04;67.23;102861.56;5352169;32;35749;-73
2024/01/30 06:53:41;;;;;;;;;;;;;;;2.42;67.04;102863.75;5353401;32;34989;-72
2024/01/30 06:56:43;;;;;;;;;;;;;;;2.84;64.12;102857.34;5363484;32;35476;-64
2024/01/30 06:59:44;;;;;;;;;;;;;;;2.99;62.82;102858.72;5362463;32;34901;-65
2024/01/30 07:02:47;;;;;;;;;;;;;;;1.46;67.85;102859.44;5365193;32;34766;-76
2024/01/30 07:05:49;;;;;;;;;;;;;;;2.10;66.15;102857.47;5345780;32;34523;-76
2024/01/30 07:08:51;;;;;;;;;;;;;;;2.51;64.65;102857.09;5349597;32;34210;-75
2024/01/30 07:11:53;;;;;;;;;;;;;;;2.91;63.09;102861.91;5364974;32;34304;-74
2024/01/30 07:14:56;;;;;;;;;;;;;;;2.79;62.88;102864.09;5353646;32;34446;-78
2024/01/30 07:18:00;;;;;;;;;;;;;;;1.92;66.31;102864.59;5361008;32;34409;-77
2024/01/30 07:21:03;;;;;;;;;;;;;;;2.44;64.59;102858.62;5363677;32;35099;-82
2024/01/30 07:24:05;;;;;;;;;;;;;;;2.40;65.20;102859.38;5366633;32;34130;-72
2024/01/30 07:27:07;;;;;;;;;;;;;;;2.44;65.46;102867.28;5369637;32;35778;-69
2024/01/30 07:30:09;;;;;;;;;;;;;;;2.34;66.35;102869.53;5350984;32;35017;-65
2024/01/30 07:33:11;;;;;;;;;;;;;;;2.16;64.79;102864.59;5362505;32;34429;-70
2024/01/30 07:36:13;;;;;;;;;;;;;;;2.66;65.66;102865.41;5368003;32;34483;-65
2024/01/30 07:39:15;;;;;;;;;;;;;;;2.26;65.77;102864.09;5362915;32;35771;-67
2024/01/30 07:42:17;;;;;;;;;;;;;;;2.10;66.69;102859.19;5365591;32;34243;-63
2024/01/30 07:45:22;;;;;;;;;;;;;;;2.46;66.31;102856.97;5368829;32;34198;-64
2024/01/30 07:48:33;;;;;;;;;;;;;;;2.46;65.26;102856.97;5350344;32;35341;-73
2024/01/30 07:51:38;;;;;;;;;;;;;;;2.61;65.79;102854.00;5368502;32;34203;-64
2024/01/30 07:54:41;;;;;;;;;;;;;;;3.35;62.76;102841.56;5362717;32;34322;-73
2024/01/30 07:57:48;;;;;;;;;;;;;;;3.38;62.64;102844.28;5349344;32;35766;-77
2024/01/30 08:00:53;;;;;;;;;;;;;;;3.41;62.00;102844.34;5354644;32;35571;-63
2024/01/30 08:03:56;;;;;;;;;;;;;;;3.05;63.40;102845.03;5350589;32;34429;-72
2024/01/30 08:06:59;;;;;;;;;;;;;;;3.25;63.35;102849.09;5365442;32;34297;-72
2024/01/30 08:10:01;;;;;;;;;;;;;;;3.31;63.23;102847.53;5344990;32;35000;-72
2024/01/30 08:13:05;;;;;;;;;;;;;;;3.53;62.62;102850.78;5347631;32;34309;-66
2024/01/30 08:16:09;;;;;;;;;;;;;;;3.50;63.11;102849.84;5362461;32;34996;-69
2024/01/30 08:19:16;;;;;;;;;;;;;;;3.06;64.70;102848.50;5346759;32;36020;-69
2024/01/30 08:22:19;;;;;;;;;;;;;;;2.66;66.40;102855.91;5352530;32;35853;-63
2024/01/30 08:25:21;;;;;;;;;;;;;;;2.61;67.50;102861.78;5357303;32;34496;-63
2024/01/30 08:28:23;;;;;;;;;;;;;;;3.31;64.38;102855.34;5369423;32;34462;-67
2024/01/30 08:31:26;;;;;;;;;;;;;;;2.88;65.88;102860.06;5364774;32;34444;-66
2024/01/30 08:34:28;;;;;;;;;;;;;;;2.84;67.59;102870.34;5363426;32;35761;-64
2024/01/30 08:37:30;;;;;;;;;;;;;;;3.66;64.60;102862.44;5366358;32;34175;-63
2024/01/30 08:40:44;;;;;;;;;;;;;;;3.75;63.87;102861.84;5362129;32;35004;-65
2024/01/30 08:43:48;;;;;;;;;;;;;;;3.48;64.54;102862.81;5355464;32;34326;-69
2024/01/30 08:46:50;;;;;;;;;;;;;;;4.02;63.30;102865.19;5347744;32;34371;-68
2024/01/30 08:49:52;;;;;;;;;;;;;;;3.85;62.87;102869.03;5369765;32;34432;-68
2024/01/30 08:52:54;;;;;;;;;;;;;;;4.80;60.71;102866.31;5364851;32;34219;-63
2024/01/30 08:55:58;;;;;;;;;;;;;;;4.77;59.82;102861.94;5363021;32;35423;-66
2024/01/30 08:59:01;;;;;;;;;;;;;;;4.74;60.89;102859.22;5365301;32;34353;-68
2024/01/30 09:02:04;;;;;;;;;;;;;;;4.65;59.86;102851.22;5364668;32;34332;-64
2024/01/30 09:05:13;;;;;;;;;;;;;;;4.95;60.14;102857.97;5359443;32;34244;-65
2024/01/30 09:08:16;;;;;;;;;;;;;;;5.74;57.15;102846.69;5354707;32;36212;-64
2024/01/30 09:11:18;;;;;;;;;;;;;;;5.13;60.22;102847.97;5363607;32;35710;-63
2024/01/30 09:14:20;;;;;;;;;;;;;;;5.57;58.08;102837.63;5350005;32;35419;-65
2024/01/30 09:17:23;;;;;;;;;;;;;;;6.95;54.96;102838.34;5358323;32;33950;-65
2024/01/30 09:20:25;;;;;;;;;;;;;;;6.43;56.01;102842.75;5351285;32;34566;-64
2024/01/30 09:23:27;;;;;;;;;;;;;;;7.09;53.77;102842.06;5360886;32;35045;-65
2024/01/30 09:26:29;;;;;;;;;;;;;;;6.27;55.50;102836.41;5365879;32;34442;-64
2024/01/30 09:29:34;;;;;;;;;;;;;;;6.96;53.03;102830.56;5354739;32;35691;-65
2024/01/30 09:32:36;;;;;;;;;;;;;;;6.22;56.32;102835.44;5357554;32;36131;-74
2024/01/30 09:35:39;;;;;;;;;;;;;;;4.94;60.21;102838.84;5348376;32;36284;-71
2024/01/30 09:38:42;;;;;;;;;;;;;;;6.22;57.20;102835.44;5351894;32;34810;-70
2024/01/30 09:41:48;;;;;;;;;;;;;;;6.15;57.59;102830.97;5354424;32;36092;-69
2024/01/30 09:44:50;;;;;;;;;;;;;;;6.16;57.85;102836.19;5348893;32;33935;-67
2024/01/30 09:47:53;;;;;;;;;;;;;;;5.90;58.96;102840.91;5357763;32;34876;-73
2024/01/30 09:51:01;;;;;;;;;;;;;;;6.07;58.94;102837.78;5339621;32;34729;-67
2024/01/30 09:54:03;;;;;;;;;;;;;;;6.66;56.70;102833.56;5335537;32;36593;-84
2024/01/30 09:57:05;;;;;;;;;;;;;;;7.55;53.93;102827.88;5366065;32;36089;-73
2024/01/30 10:00:08;;;;;;;;;;;;;;;5.62;59.58;102834.28;5364363;32;34097;-78
2024/01/30 10:03:11;;;;;;;;;;;;;;;6.51;57.84;102834.22;5352297;32;35562;-68
2024/01/30 10:06:14;;;;;;;;;;;;;;;6.51;57.90;102834.22;5364722;32;34274;-70
2024/01/30 10:09:19;;;;;;;;;;;;;;;6.16;58.01;102841.41;5363293;32;35039;-71
2024/01/30 10:12:21;;;;;;;;;;;;;;;6.24;59.88;102841.56;5372138;32;36122;-76
2024/01/30 10:15:28;;;;;;;;;;;;;;;5.30;61.87;102846.63;5367223;32;34303;-87
2024/01/30 10:18:36;;;;;;;;;;;;;;;6.58;59.02;102840.41;5370710;32;34382;-79
2024/01/30 10:21:38;;;;;;;;;;;;;;;7.45;56.58;102827.72;5366580;32;34745;-77
2024/01/30 10:24:40;;;;;;;;;;;;;;;6.97;57.89;102816.63;5367078;32;35954;-80
2024/01/30 10:27:45;;;;;;;;;;;;;;;7.11;58.39;102821.16;5359098;32;36205;-80
2024/01/30 10:30:57;;;;;;;;;;;;;;;7.31;57.33;102817.09;5354969;32;34294;-73
2024/01/30 10:34:00;;;;;;;;;;;;;;;8.14;54.31;102818.91;5364875;32;34362;-86
2024/01/30 10:37:17;;;;;;;;;;;;;;;7.49;56.24;102816.44;5360937;32;34336;-74
2024/01/30 10:40:19;;;;;;;;;;;;;;;8.22;54.41;102804.12;5354853;32;35133;-75
2024/01/30 10:43:22;;;;;;;;;;;;;;;8.87;52.45;102798.53;5366015;32;35135;-78
2024/01/30 10:46:25;;;;;;;;;;;;;;;9.13;52.18;102788.19;5356956;32;34423;-74
2024/01/30 10:49:27;;;;;;;;;;;;;;;12.13;44.09;102774.75;5348454;32;34473;-81
2024/01/30 10:52:32;;;;;;;;;;;;;;;12.12;43.41;102776.50;5348007;32;35529;-71
2024/01/30 10:55:43;;;;;;;;;;;;;;;12.59;42.04;102763.78;5357475;32;34286;-75
2024/01/30 10:58:47;;;;;;;;;;;;;;;12.36;42.29;102764.00;5366574;32;34543;-77
2024/01/30 11:01:50;;;;;;;;;;;;;;;12.84;40.42;102756.50;5361677;32;34436;-80
2024/01/30 11:04:57;;;;;;;;;;;;;;;11.29;44.31;102762.03;5347792;32;34366;-76
2024/01/30 11:08:10;;;;;;;;;;;;;;;11.34;44.66;102747.97;5340045;32;34410;-74
2024/01/30 11:11:12;;;;;;;;;;;;;;;14.13;38.70;102732.72;5363069;32;34349;-77
2024/01/30 11:14:25;;;;;;;;;;;;;;;13.79;38.47;102740.34;5362430;32;35619;-66
2024/01/30 11:17:28;;;;;;;;;;;;;;;13.27;39.23;102738.44;5342392;32;33524;-74
2024/01/30 11:20:35;;;;;;;;;;;;;;;12.70;40.99;102733.78;5359975;32;36116;-64
2024/01/30 11:23:40;;;;;;;;;;;;;;;13.35;39.22;102728.63;5350023;32;35221;-62
2024/01/30 11:26:46;;;;;;;;;;;;;;;13.11;39.35;102729.78;5360913;32;34378;-63
2024/01/30 11:29:49;;;;;;;;;;;;;;;10.80;44.65;102738.53;5361433;32;34975;-62
2024/01/30 11:33:11;;;;;;;;;;;;;;;11.66;42.93;102732.00;5360596;32;34934;-62
2024/01/30 11:36:13;;;;;;;;;;;;;;;11.34;43.66;102726.91;5358966;32;34310;-67
2024/01/30 11:39:16;;;;;;;;;;;;;;;9.57;47.64;102740.25;5331960;32;34307;-71
2024/01/30 11:42:19;;;;;;;;;;;;;;;10.69;43.57;102725.41;5359069;32;34434;-75
2024/01/30 11:45:23;;;;;;;;;;;;;;;11.66;43.29;102725.88;5351965;32;34090;-71
2024/01/30 11:48:26;;;;;;;;;;;;;;;13.55;38.73;102710.72;5365111;32;34554;-73
2024/01/30 11:51:28;;;;;;;;;;;;;;;12.86;39.73;102710.72;5368987;32;35930;-75
2024/01/30 11:54:30;;;;;;;;;;;;;;;12.38;40.54;102713.00;5358605;32;34691;-74
2024/01/30 11:57:32;;;;;;;;;;;;;;;12.09;41.68;102705.34;5366288;32;33998;-74
2024/01/30 12:00:34;;;;;;;;;;;;;;;10.56;45.54;102711.41;5369554;32;34235;-72
2024/01/30 12:03:37;;;;;;;;;;;;;;;12.68;40.36;102688.03;5365987;32;35939;-73
2024/01/30 12:06:40;;;;;;;;;;;;;;;10.22;44.56;102696.53;5353078;32;35225;-73
2024/01/30 12:09:42;;;;;;;;;;;;;;;11.85;42.38;102693.25;5353964;32;35448;-74
2024/01/30 12:12:54;;;;;;;;;;;;;;;13.31;39.15;102673.22;5353390;32;35598;-72
2024/01/30 12:15:56;;;;;;;;;;;;;;;11.39;42.96;102680.34;5369600;32;33772;-83
2024/01/30 12:19:03;;;;;;;;;;;;;;;12.13;41.50;102671.94;5354686;32;35386;-72
2024/01/30 12:22:07;;;;;;;;;;;;;;;14.66;37.66;102654.19;5368439;32;34658;-72
2024/01/30 12:25:10;;;;;;;;;;;;;;;15.13;36.13;102650.53;5364950;32;35477;-76
2024/01/30 12:28:15;;;;;;;;;;;;;;;15.41;33.62;102649.91;5354279;32;34344;-76
2024/01/30 12:31:17;;;;;;;;;;;;;;;16.70;32.35;102643.03;5369768;32;33643;-77
2024/01/30 12:34:22;;;;;;;;;;;;;;;16.87;29.87;102644.31;5369411;32;34244;-73
2024/01/30 12:37:25;;;;;;;;;;;;;;;15.66;32.60;102651.09;5355857;32;37707;-77
2024/01/30 12:40:29;;;;;;;;;;;;;;;14.11;35.55;102659.63;5355775;32;34100;-77
2024/01/30 12:43:36;;;;;;;;;;;;;;;15.03;34.42;102656.94;5350485;32;35491;-71
2024/01/30 12:46:40;;;;;;;;;;;;;;;12.85;38.06;102643.00;5362097;32;35049;-76
2024/01/30 12:49:44;;;;;;;;;;;;;;;12.24;39.18;102651.62;5349930;32;34920;-70
2024/01/30 12:52:46;;;;;;;;;;;;;;;12.70;38.64;102659.91;5355906;32;35852;-67
2024/01/30 12:55:51;;;;;;;;;;;;;;;14.92;35.30;102635.09;5363485;32;34106;-72
2024/01/30 12:58:53;;;;;;;;;;;;;;;14.30;35.55;102642.53;5363421;32;34477;-66
2024/01/30 13:01:58;;;;;;;;;;;;;;;14.06;35.68;102634.13;5365742;32;34306;-64
2024/01/30 13:05:00;;;;;;;;;;;;;;;13.76;36.32;102640.81;5337343;32;34387;-69
2024/01/30 13:08:03;;;;;;;;;;;;;;;12.92;37.67;102633.22;5371626;32;34296;-66
2024/01/30 13:11:05;;;;;;;;;;;;;;;13.49;37.00;102626.28;5365864;32;34359;-64
2024/01/30 13:14:12;;;;;;;;;;;;;;;15.04;34.66;102618.06;5353348;32;34359;-67
2024/01/30 13:17:14;;;;;;;;;;;;;;;17.56;30.49;102605.81;5351645;32;35130;-63
2024/01/30 13:20:19;;;;;;;;;;;;;;;17.09;30.80;102607.34;5367668;32;34050;-65
2024/01/30 13:23:26;;;;;;;;;;;;;;;16.78;29.90;102611.81;5367681;32;34191;-70
2024/01/30 13:26:28;;;;;;;;;;;;;;;16.32;30.79;102600.75;5346120;32;34301;-72
2024/01/30 13:29:30;;;;;;;;;;;;;;;16.16;30.04;102605.59;5353999;32;35977;-72
2024/01/30 13:32:35;;;;;;;;;;;;;;;15.28;30.84;102600.75;5334366;32;34087;-64
2024/01/30 13:35:38;;;;;;;;;;;;;;;14.03;32.75;102613.00;5365410;32;34374;-75
2024/01/30 13:38:45;;;;;;;;;;;;;;;15.97;28.02;102603.47;5369452;32;34266;-65
2024/01/30 13:41:50;;;;;;;;;;;;;;;16.96;26.68;102614.84;5371316;32;34423;-68
2024/01/30 13:44:53;;;;;;;;;;;;;;;16.79;26.58;102607.38;5350998;32;34285;-75
2024/01/30 13:47:55;;;;;;;;;;;;;;;16.91;26.86;102609.66;5350737;32;34312;-77
2024/01/30 13:50:59;;;;;;;;;;;;;;;18.01;25.19;102597.22;5353398;32;35546;-69
2024/01/30 13:54:03;;;;;;;;;;;;;;;17.73;25.72;102603.50;5342170;32;34170;-67
2024/01/30 13:57:07;;;;;;;;;;;;;;;17.62;25.19;102594.12;5347526;32;34716;-65
2024/01/30 14:00:12;;;;;;;;;;;;;;;16.62;26.25;102599.87;5359416;32;35139;-65
2024/01/30 14:03:15;;;;;;;;;;;;;;;14.49;28.97;102609.53;5353557;32;34108;-64
2024/01/30 14:06:19;;;;;;;;;;;;;;;12.89;31.48;102614.81;5357123;32;34333;-77
2024/01/30 14:09:21;;;;;;;;;;;;;;;11.92;33.72;102612.41;5344563;32;32801;-68
2024/01/30 14:12:27;;;;;;;;;;;;;;;11.22;35.00;102618.19;5357418;32;34019;-76
2024/01/30 14:15:37;;;;;;;;;;;;;;;10.58;36.64;102617.63;5353754;32;34950;-75
2024/01/30 14:18:41;;;;;;;;;;;;;;;13.10;32.80;102603.06;5342256;32;34298;-66
2024/01/30 14:21:43;;;;;;;;;;;;;;;14.55;30.21;102597.94;5339501;32;34702;-75
2024/01/30 14:24:45;;;;;;;;;;;;;;;14.80;29.27;102600.94;5351361;32;34357;-77
2024/01/30 14:27:50;;;;;;;;;;;;;;;13.30;31.89;102601.03;5362089;32;34220;-66
2024/01/30 14:30:52;;;;;;;;;;;;;;;10.75;36.22;102614.03;5360870;32;34148;-73
2024/01/30 14:33:56;;;;;;;;;;;;;;;12.71;33.46;102589.53;5339217;32;36110;-64
2024/01/30 14:37:00;;;;;;;;;;;;;;;11.18;35.90;102608.53;5356189;32;34464;-69
2024/01/30 14:40:07;;;;;;;;;;;;;;;11.17;36.09;102607.66;5363247;32;34983;-65
2024/01/30 14:43:11;;;;;;;;;;;;;;;10.77;37.33;102607.03;5359750;32;35684;-65
2024/01/30 14:46:13;;;;;;;;;;;;;;;9.67;39.53;102612.50;5355653;32;34957;-62
2024/01/30 14:49:15;;;;;;;;;;;;;;;10.10;38.31;102594.06;5349504;32;34122;-64
2024/01/30 14:52:17;;;;;;;;;;;;;;;10.80;37.40;102599.97;5358398;32;36558;-73
2024/01/30 14:55:19;;;;;;;;;;;;;;;10.66;37.99;102595.66;5359586;32;34227;-72
2024/01/30 14:58:23;;;;;;;;;;;;;;;10.78;37.59;102606.13;5358527;32;34413;-64
2024/01/30 15:01:25;;;;;;;;;;;;;;;9.76;39.69;102607.22;5338005;32;35513;-69
2024/01/30 15:04:28;;;;;;;;;;;;;;;9.13;41.14;102603.69;5357500;32;35667;-67
2024/01/30 15:07:30;;;;;;;;;;;;;;;9.01;41.49;102606.25;5352638;32;35616;-64
2024/01/30 15:10:41;;;;;;;;;;;;;;;7.93;43.81;102609.22;5350241;32;35647;-73
2024/01/30 15:13:43;;;;;;;;;;;;;;;8.45;43.26;102604.31;5348949;32;34329;-65
2024/01/30 15:16:45;;;;;;;;;;;;;;;7.92;44.53;102610.06;5358518;32;34907;-76
2024/01/30 15:19:47;;;;;;;;;;;;;;;8.57;43.22;102609.63;5349331;32;34534;-64
2024/01/30 15:22:50;;;;;;;;;;;;;;;8.56;43.18;102606.09;5344206;32;35119;-76
2024/01/30 15:25:52;;;;;;;;;;;;;;;8.33;43.50;102605.09;5362276;32;35409;-76
2024/01/30 15:28:54;;;;;;;;;;;;;;;8.34;43.65;102601.59;5350463;32;34285;-72
2024/01/30 15:31:56;;;;;;;;;;;;;;;7.67;45.21;102602.03;5370565;32;34963;-65
2024/01/30 15:35:02;;;;;;;;;;;;;;;7.47;45.72;102611.44;5369484;32;35051;-63
2024/01/30 15:38:08;;;;;;;;;;;;;;;7.54;46.29;102608.91;5360787;32;36339;-74
2024/01/30 15:41:10;;;;;;;;;;;;;;;7.98;45.52;102604.84;5356681;32;35466;-65
2024/01/30 15:44:12;;;;;;;;;;;;;;;7.98;45.45;102599.63;5346830;32;34544;-62
2024/01/30 15:47:14;;;;;;;;;;;;;;;7.76;45.95;102603.84;5373560;32;34372;-74
2024/01/30 15:50:16;;;;;;;;;;;;;;;8.25;45.25;102602.44;5354580;32;34340;-66
2024/01/30 15:53:21;;;;;;;;;;;;;;;8.16;45.51;102604.97;5373259;32;34539;-64
2024/01/30 15:56:23;;;;;;;;;;;;;;;7.80;46.57;102611.75;5356660;32;35430;-65
2024/01/30 15:59:27;;;;;;;;;;;;;;;6.61;50.04;102622.69;5374393;32;36390;-74